Time;durP1;ratioP1;P1;durP2;ratioP2;P2;SDS_P1;SDS_P2;PMS_P1;PMS_P2;Temp;Humidity;BMP_temperature;BMP_pressure;BME280_temperature;BME280_humidity;BME280_pressure;Samples;Min_cycle;Max_cycle;Signal;HPM_P1;HPM_P2
2023/10/14 04:02:24;;;;;;;2.70;1.07;;;21.50;19.40;;;;;;5112229;23;20476;-71
2023/10/14 04:05:01;;;;;;;0.60;0.30;;;19.00;17.50;;;;;;4952609;28;20482;-71
2023/10/14 04:07:30;;;;;;;2.53;1.10;;;21.20;19.00;;;;;;4944368;28;20490;-71
2023/10/14 04:10:04;;;;;;;3.17;1.83;;;21.10;20.40;;;;;;4952736;28;20478;-71
2023/10/14 04:12:37;;;;;;;0.90;0.60;;;21.10;19.80;;;;;;4956510;28;20476;-71
2023/10/14 04:15:23;;;;;;;0.70;0.40;;;21.20;28.70;;;;;;4948671;28;20462;-72
2023/10/14 04:17:55;;;;;;;0.60;0.13;;;21.00;22.00;;;;;;5007618;23;21107;-71
2023/10/14 04:20:29;;;;;;;1.00;0.70;;;20.90;23.20;;;;;;4994331;28;20447;-72
2023/10/14 04:22:58;;;;;;;0.60;0.30;;;20.90;24.20;;;;;;4993692;28;20532;-70
2023/10/14 04:25:38;;;;;;;0.80;0.40;;;20.90;25.20;;;;;;4994534;28;20451;-70
2023/10/14 04:28:30;;;;;;;1.63;1.23;;;20.80;25.40;;;;;;4987650;28;20478;-71
2023/10/14 04:31:06;;;;;;;1.30;0.33;;;20.80;25.60;;;;;;4975109;28;20450;-69
2023/10/14 04:33:45;;;;;;;0.70;0.30;;;20.60;26.40;;;;;;4986502;28;20445;-70
2023/10/14 04:36:36;;;;;;;0.60;0.20;;;;;;;;;;4993132;28;20448;-70
2023/10/14 04:39:13;;;;;;;1.73;0.93;;;20.70;26.70;;;;;;4985936;28;20512;-69
2023/10/14 04:42:21;;;;;;;0.87;0.60;;;20.60;27.40;;;;;;4986658;28;20457;-70
2023/10/14 04:44:53;;;;;;;0.73;0.30;;;20.60;28.20;;;;;;4994345;28;20452;-70
2023/10/14 04:47:35;;;;;;;0.70;0.47;;;20.60;28.70;;;;;;4994482;28;20464;-70
2023/10/14 04:50:11;;;;;;;0.60;0.20;;;20.60;29.20;;;;;;4992514;28;20484;-73
2023/10/14 04:52:41;;;;;;;1.97;0.80;;;20.60;29.70;;;;;;4994345;28;20448;-71
2023/10/14 04:55:25;;;;;;;1.27;1.17;;;20.50;31.30;;;;;;4994453;28;20440;-69
2023/10/14 04:58:11;;;;;;;0.60;0.10;;;20.60;33.00;;;;;;4978788;28;20465;-74
2023/10/14 05:00:45;;;;;;;0.90;0.50;;;20.60;32.60;;;;;;4992218;28;20483;-71
2023/10/14 05:03:14;;;;;;;0.80;0.50;;;20.60;32.90;;;;;;4994752;28;20445;-70
2023/10/14 05:05:48;;;;;;;0.87;0.40;;;20.50;33.80;;;;;;4985643;28;20445;-72
2023/10/14 05:08:21;;;;;;;2.13;2.00;;;20.50;35.70;;;;;;4974160;28;20467;-70
2023/10/14 05:10:51;;;;;;;0.77;0.30;;;20.40;37.70;;;;;;4964297;28;21015;-70
2023/10/14 05:13:25;;;;;;;0.73;0.27;;;20.40;38.00;;;;;;4973959;28;20520;-70
2023/10/14 05:15:54;;;;;;;0.93;0.40;;;20.40;41.70;;;;;;4974827;28;20537;-70
2023/10/14 05:18:28;;;;;;;1.43;0.77;;;20.20;43.70;;;;;;4974084;28;20478;-70
2023/10/14 05:21:03;;;;;;;0.60;0.20;;;20.20;46.40;;;;;;4956707;28;20455;-73
2023/10/14 05:23:32;;;;;;;0.80;0.47;;;20.20;47.00;;;;;;4955337;28;20561;-70
2023/10/14 05:26:06;;;;;;;0.80;0.43;;;20.20;49.10;;;;;;4953822;28;20588;-70
2023/10/14 05:28:36;;;;;;;0.60;0.30;;;20.20;81.60;;;;;;4971186;28;20475;-69
2023/10/14 05:31:08;;;;;;;0.60;0.13;;;20.10;97.60;;;;;;4971710;28;20478;-71
2023/10/14 05:33:36;;;;;;;0.60;0.10;;;19.90;99.90;;;;;;4972317;28;20482;-72
2023/10/14 05:36:06;;;;;;;0.60;0.10;;;19.70;94.30;;;;;;4973902;28;20509;-72
2023/10/14 05:38:34;;;;;;;0.60;0.10;;;19.50;92.10;;;;;;4973444;28;20476;-70
2023/10/14 05:41:06;;;;;;;0.60;0.10;;;19.20;93.80;;;;;;4973675;28;21019;-71
2023/10/14 05:43:34;;;;;;;0.60;0.10;;;19.10;95.20;;;;;;4972455;28;20457;-71
2023/10/14 05:46:12;;;;;;;0.60;0.10;;;18.90;97.60;;;;;;4967302;28;20478;-73
2023/10/14 05:48:40;;;;;;;0.60;0.10;;;18.90;99.90;;;;;;4973330;28;21159;-70
2023/10/14 05:51:09;;;;;;;0.60;0.10;;;18.80;99.90;;;;;;4973935;28;20512;-70
2023/10/14 05:53:37;;;;;;;0.60;0.10;;;18.80;99.90;;;;;;4972788;28;20463;-70
2023/10/14 05:56:11;;;;;;;0.60;0.10;;;18.70;99.90;;;;;;4973480;28;20936;-71
2023/10/14 05:58:40;;;;;;;0.60;0.10;;;18.70;99.90;;;;;;4973858;28;20531;-73
2023/10/14 06:01:09;;;;;;;0.60;0.10;;;18.60;99.90;;;;;;4966461;28;20484;-70
2023/10/14 06:03:38;;;;;;;0.60;0.10;;;18.60;99.90;;;;;;4965328;28;20461;-69
2023/10/14 06:06:09;;;;;;;0.60;0.10;;;18.60;99.90;;;;;;4974181;28;20448;-71
2023/10/14 06:08:39;;;;;;;0.60;0.10;;;18.50;99.90;;;;;;4973504;28;20533;-71
2023/10/14 06:11:07;;;;;;;0.60;0.10;;;18.40;99.90;;;;;;4974371;28;20477;-72
2023/10/14 06:13:36;;;;;;;0.60;0.10;;;18.40;99.90;;;;;;4966395;28;20506;-70
2023/10/14 06:16:09;;;;;;;0.60;0.10;;;18.40;99.90;;;;;;4974192;28;20570;-70
2023/10/14 06:18:37;;;;;;;0.60;0.10;;;18.50;99.90;;;;;;4974450;28;20480;-73
2023/10/14 06:21:07;;;;;;;0.60;0.10;;;18.40;99.90;;;;;;4969867;28;20438;-72
2023/10/14 06:23:35;;;;;;;0.60;0.10;;;;;;;;;;4967380;28;20504;-74
2023/10/14 06:26:05;;;;;;;0.60;0.10;;;18.40;99.90;;;;;;4973965;28;20452;-73
2023/10/14 06:28:33;;;;;;;0.60;0.10;;;18.40;99.90;;;;;;4971930;28;20545;-74
2023/10/14 06:31:04;;;;;;;0.60;0.20;;;18.50;99.90;;;;;;4970660;28;20554;-73
2023/10/14 06:33:32;;;;;;;0.60;0.10;;;18.50;99.90;;;;;;4974486;28;20952;-71
2023/10/14 06:36:03;;;;;;;0.60;0.10;;;18.40;99.90;;;;;;4974179;28;20462;-70
2023/10/14 06:38:33;;;;;;;0.60;0.10;;;18.40;99.90;;;;;;4971061;28;20482;-69
2023/10/14 06:41:02;;;;;;;0.60;0.20;;;18.30;99.90;;;;;;4970455;28;20440;-69
2023/10/14 06:43:33;;;;;;;0.60;0.10;;;18.30;99.90;;;;;;4971377;28;20883;-70
2023/10/14 06:46:04;;;;;;;0.60;0.10;;;18.30;99.90;;;;;;4972068;28;20857;-69
2023/10/14 06:48:33;;;;;;;0.60;0.10;;;18.30;99.90;;;;;;4973302;28;20947;-70
2023/10/14 06:51:01;;;;;;;0.60;0.10;;;18.30;99.90;;;;;;4974268;28;20484;-74
2023/10/14 06:53:30;;;;;;;0.60;0.10;;;18.30;99.90;;;;;;4968952;28;20451;-72
2023/10/14 06:56:00;;;;;;;0.60;0.10;;;18.30;99.90;;;;;;4967881;28;20525;-73
2023/10/14 06:58:29;;;;;;;0.60;0.10;;;18.30;99.90;;;;;;4975827;28;20621;-73
2023/10/14 07:00:59;;;;;;;0.60;0.10;;;18.30;99.90;;;;;;4968670;28;20949;-76
2023/10/14 07:03:28;;;;;;;0.60;0.10;;;18.30;99.90;;;;;;4970282;28;20980;-74
2023/10/14 07:06:00;;;;;;;0.60;0.10;;;;;;;;;;4964276;28;20464;-74
2023/10/14 07:08:28;;;;;;;0.60;0.10;;;18.30;99.90;;;;;;4975541;28;20524;-74
2023/10/14 07:10:57;;;;;;;0.60;0.10;;;18.30;99.90;;;;;;4975645;28;20566;-73
2023/10/14 07:13:25;;;;;;;0.60;0.10;;;18.20;99.90;;;;;;4976675;28;20511;-72
2023/10/14 07:15:54;;;;;;;0.60;0.10;;;18.10;99.90;;;;;;4974356;28;20464;-74
2023/10/14 07:18:24;;;;;;;0.60;0.10;;;18.10;99.90;;;;;;4975872;28;20477;-74
2023/10/14 07:20:57;;;;;;;0.60;0.10;;;17.80;99.90;;;;;;4978177;28;20445;-72
2023/10/14 07:23:27;;;;;;;0.60;0.10;;;17.70;99.90;;;;;;4977039;28;20449;-73
2023/10/14 07:25:57;;;;;;;0.60;0.10;;;17.70;99.90;;;;;;4973244;28;20452;-72
2023/10/14 07:28:26;;;;;;;0.60;0.10;;;17.80;99.90;;;;;;4971114;28;21009;-72
2023/10/14 07:30:56;;;;;;;0.60;0.20;;;17.70;95.90;;;;;;4975299;28;20488;-73
2023/10/14 07:33:26;;;;;;;0.60;0.10;;;17.60;76.10;;;;;;4975605;28;20453;-72
2023/10/14 07:35:54;;;;;;;0.60;0.10;;;17.50;70.70;;;;;;4974661;28;20938;-75
2023/10/14 07:38:22;;;;;;;0.60;0.20;;;17.40;63.90;;;;;;4975498;28;20503;-73
2023/10/14 07:40:49;;;;;;;0.70;0.10;;;17.30;48.10;;;;;;4976302;28;20485;-73
2023/10/14 07:43:19;;;;;;;0.60;0.10;;;17.20;48.40;;;;;;4974974;28;20453;-72
2023/10/14 07:45:47;;;;;;;0.70;0.20;;;17.10;38.20;;;;;;4972045;28;20544;-73
2023/10/14 07:48:17;;;;;;;0.60;0.10;;;16.90;19.10;;;;;;4978788;28;20468;-73
2023/10/14 07:50:48;;;;;;;0.60;0.10;;;16.70;20.10;;;;;;4978990;28;20513;-73
2023/10/14 07:53:22;;;;;;;0.60;0.20;;;16.60;19.30;;;;;;4978905;28;20448;-73
2023/10/14 07:55:52;;;;;;;0.80;0.20;;;16.60;16.90;;;;;;4972094;28;20551;-73
2023/10/14 07:58:24;;;;;;;0.60;0.10;;;16.50;15.40;;;;;;4977720;28;20472;-72
2023/10/14 08:00:53;;;;;;;0.60;0.10;;;16.50;19.80;;;;;;4979115;28;20979;-72
2023/10/14 08:03:23;;;;;;;0.60;0.10;;;16.50;17.90;;;;;;4978903;28;20499;-72
2023/10/14 08:05:54;;;;;;;0.60;0.10;;;16.60;16.90;;;;;;4973069;28;20491;-73
2023/10/14 08:08:23;;;;;;;0.60;0.10;;;16.60;15.20;;;;;;4978355;28;20467;-73
2023/10/14 08:10:52;;;;;;;0.60;0.10;;;16.60;12.60;;;;;;4978039;28;20482;-73
2023/10/14 08:13:22;;;;;;;0.60;0.10;;;16.60;13.20;;;;;;4970200;28;20469;-73
2023/10/14 08:15:50;;;;;;;0.60;0.10;;;16.70;14.60;;;;;;4971066;28;21440;-72
2023/10/14 08:18:19;;;;;;;0.60;0.10;;;16.70;13.60;;;;;;4977135;28;20840;-72
2023/10/14 08:20:47;;;;;;;0.60;0.10;;;16.70;10.60;;;;;;4978005;28;20879;-73
2023/10/14 08:23:17;;;;;;;0.70;0.30;;;16.70;9.50;;;;;;4977045;28;20475;-71
2023/10/14 08:25:46;;;;;;;0.60;0.10;;;16.50;10.30;;;;;;4970145;28;20536;-72
2023/10/14 08:28:14;;;;;;;0.60;0.20;;;16.50;12.40;;;;;;4969873;28;20472;-72
2023/10/14 08:30:46;;;;;;;0.60;0.10;;;16.60;13.90;;;;;;4975137;28;20565;-72
2023/10/14 08:33:14;;;;;;;0.60;0.20;;;;;;;;;;4976106;28;20941;-72
2023/10/14 08:35:42;;;;;;;0.60;0.10;;;16.50;13.60;;;;;;4979244;28;20450;-73
2023/10/14 08:38:12;;;;;;;0.60;0.20;;;16.50;13.50;;;;;;4977216;28;20498;-72
2023/10/14 08:40:43;;;;;;;0.60;0.10;;;16.50;13.10;;;;;;4995634;28;20512;-72
2023/10/14 08:43:16;;;;;;;0.60;0.17;;;16.50;14.50;;;;;;4987213;28;20518;-73
2023/10/14 08:45:47;;;;;;;0.60;0.10;;;16.40;14.70;;;;;;4988152;28;20455;-74
2023/10/14 08:48:17;;;;;;;0.60;0.17;;;16.40;14.60;;;;;;4993822;28;20476;-72
2023/10/14 08:50:46;;;;;;;0.60;0.10;;;16.50;15.10;;;;;;4994092;28;21505;-73
2023/10/14 08:53:14;;;;;;;0.60;0.10;;;16.50;14.90;;;;;;4993905;28;20487;-72
2023/10/14 08:55:44;;;;;;;0.60;0.37;;;;;;;;;;4987641;28;20962;-73
2023/10/14 08:58:14;;;;;;;0.80;0.20;;;16.50;8.90;;;;;;4984202;28;20566;-72
2023/10/14 09:00:44;;;;;;;0.60;0.10;;;16.40;5.60;;;;;;4990502;28;20450;-73
2023/10/14 09:03:13;;;;;;;0.60;0.10;;;16.30;5.00;;;;;;4995300;28;20479;-72
2023/10/14 09:05:44;;;;;;;0.60;0.10;;;16.40;5.20;;;;;;4989321;28;20459;-73
2023/10/14 09:08:17;;;;;;;0.60;0.10;;;16.40;4.90;;;;;;4992529;28;20474;-73
2023/10/14 09:10:49;;;;;;;0.60;0.10;;;16.40;3.20;;;;;;4981288;28;20485;-73
2023/10/14 09:13:20;;;;;;;0.67;0.57;;;16.40;2.60;;;;;;4993833;28;20481;-73
2023/10/14 09:15:50;;;;;;;0.60;0.10;;;16.40;2.10;;;;;;4988518;28;20455;-72
2023/10/14 09:18:19;;;;;;;0.60;0.20;;;16.40;2.90;;;;;;4993413;28;20556;-72
2023/10/14 09:20:53;;;;;;;0.60;0.10;;;16.50;3.20;;;;;;4993269;28;20499;-73
2023/10/14 09:23:27;;;;;;;0.60;0.10;;;16.50;2.90;;;;;;4993147;28;20450;-72
2023/10/14 09:25:57;;;;;;;0.60;0.10;;;16.60;1.00;;;;;;4988384;28;20562;-72
2023/10/14 09:28:27;;;;;;;0.60;0.10;;;16.60;1.00;;;;;;4992830;28;20473;-74
2023/10/14 09:30:57;;;;;;;8.50;0.93;;;16.60;1.00;;;;;;4993206;28;20464;-72
2023/10/14 09:33:27;;;;;;;0.83;0.80;;;18.20;1.00;;;;;;4984747;28;20541;-72
2023/10/14 09:35:59;;;;;;;0.60;0.10;;;16.50;1.00;;;;;;4987335;28;20514;-72
2023/10/14 09:38:28;;;;;;;0.70;0.40;;;16.50;1.00;;;;;;4993354;28;20533;-72
2023/10/14 09:40:59;;;;;;;0.60;0.10;;;16.50;1.00;;;;;;4992868;28;20956;-73
2023/10/14 09:43:27;;;;;;;0.60;0.10;;;16.60;1.00;;;;;;4993218;28;20449;-71
2023/10/14 09:45:57;;;;;;;1.33;0.80;;;16.60;1.00;;;;;;4986495;28;20548;-74
2023/10/14 09:48:26;;;;;;;0.60;0.10;;;16.60;1.00;;;;;;4988138;28;20466;-72
2023/10/14 09:50:55;;;;;;;0.60;0.10;;;16.60;1.00;;;;;;4993523;28;20542;-72
2023/10/14 09:53:27;;;;;;;0.60;0.10;;;16.60;1.00;;;;;;4981895;28;20543;-73
2023/10/14 09:56:04;;;;;;;0.60;0.10;;;16.70;1.00;;;;;;4973005;28;20482;-71
2023/10/14 09:58:35;;;;;;;0.60;0.10;;;16.70;1.00;;;;;;4972728;28;20864;-73
2023/10/14 10:01:04;;;;;;;0.60;0.13;;;16.70;1.00;;;;;;4972916;28;20487;-73
2023/10/14 10:03:38;;;;;;;0.60;0.10;;;16.70;1.00;;;;;;4972061;28;20516;-74
2023/10/14 10:06:20;;;;;;;0.60;0.20;;;16.60;1.00;;;;;;4965506;28;20455;-73
2023/10/14 10:09:03;;;;;;;0.60;0.10;;;16.70;1.00;;;;;;4972276;28;20467;-73
2023/10/14 10:11:35;;;;;;;0.60;0.10;;;;;;;;;;4970795;28;20448;-72
2023/10/14 10:14:12;;;;;;;0.60;0.10;;;16.90;1.00;;;;;;4967570;28;20476;-73
2023/10/14 10:16:42;;;;;;;0.60;0.20;;;;;;;;;;4969406;28;20546;-74
2023/10/14 10:19:11;;;;;;;0.60;0.10;;;17.10;1.00;;;;;;4969366;28;20464;-73
2023/10/14 10:21:43;;;;;;;0.60;0.20;;;17.10;1.00;;;;;;4973524;28;20449;-72
2023/10/14 10:24:24;;;;;;;0.60;0.10;;;17.20;1.00;;;;;;4972973;28;20453;-74
2023/10/14 10:27:08;;;;;;;0.87;0.30;;;17.30;1.00;;;;;;4972429;28;20502;-72
2023/10/14 10:29:45;;;;;;;0.60;0.10;;;17.10;1.00;;;;;;4969319;28;20500;-72
2023/10/14 10:32:19;;;;;;;0.60;0.10;;;17.00;1.00;;;;;;4965486;28;20483;-73
2023/10/14 10:35:16;;;;;;;0.60;0.10;;;16.90;1.00;;;;;;4972633;28;20452;-72
2023/10/14 10:37:55;;;;;;;0.60;0.10;;;16.90;1.00;;;;;;4972280;28;20508;-72
2023/10/14 10:40:25;;;;;;;0.60;0.10;;;16.80;1.00;;;;;;4971226;28;20979;-73
2023/10/14 10:42:57;;;;;;;0.60;0.20;;;16.80;1.00;;;;;;4972605;28;20485;-72
2023/10/14 10:45:29;;;;;;;0.60;0.20;;;15.80;1.00;;;;;;4972409;28;20486;-72
2023/10/14 10:47:59;;;;;;;1.27;0.43;;;16.90;1.00;;;;;;4971823;28;20861;-73
2023/10/14 10:50:34;;;;;;;0.60;0.10;;;17.00;1.00;;;;;;4972510;28;20476;-72
2023/10/14 10:53:19;;;;;;;0.60;0.10;;;17.10;1.00;;;;;;4972129;28;20490;-71
2023/10/14 10:55:51;;;;;;;1.00;0.50;;;17.20;1.00;;;;;;4971433;28;20452;-71
2023/10/14 10:58:21;;;;;;;0.60;0.20;;;17.30;1.00;;;;;;4965614;28;20476;-71
2023/10/14 11:00:51;;;;;;;0.60;0.10;;;17.40;1.00;;;;;;4971637;28;20562;-70
2023/10/14 11:03:19;;;;;;;0.60;0.20;;;17.40;1.00;;;;;;4970964;28;20459;-71
2023/10/14 11:05:48;;;;;;;0.60;0.20;;;17.50;1.00;;;;;;4967628;28;20526;-70
2023/10/14 11:08:16;;;;;;;0.60;0.10;;;17.40;1.00;;;;;;4979285;28;21746;-71
2023/10/14 11:10:48;;;;;;;0.70;0.37;;;17.50;1.00;;;;;;4989786;28;20598;-70
2023/10/14 11:13:17;;;;;;;0.60;0.10;;;17.50;1.00;;;;;;4976229;28;20946;-69
2023/10/14 11:15:47;;;;;;;0.60;0.10;;;17.60;1.00;;;;;;4985887;28;20471;-70
2023/10/14 11:18:15;;;;;;;0.60;0.10;;;17.70;1.00;;;;;;4983259;28;20562;-69
2023/10/14 11:21:03;;;;;;;0.60;0.10;;;17.70;1.00;;;;;;4994893;28;20445;-70
2023/10/14 11:23:35;;;;;;;0.60;0.10;;;17.60;1.00;;;;;;4994912;28;20983;-70
2023/10/14 11:26:11;;;;;;;1.33;0.63;;;17.50;1.00;;;;;;4990316;28;20464;-71
2023/10/14 11:28:39;;;;;;;0.60;0.10;;;17.50;1.00;;;;;;4986598;28;21076;-70
2023/10/14 11:31:08;;;;;;;0.60;0.17;;;17.40;1.00;;;;;;4995116;28;20444;-71
2023/10/14 11:33:37;;;;;;;0.60;0.10;;;17.40;1.00;;;;;;4993023;28;20482;-69
2023/10/14 11:36:05;;;;;;;0.60;0.10;;;17.20;1.00;;;;;;4989719;28;20833;-70
2023/10/14 11:38:42;;;;;;;0.60;0.10;;;17.10;1.00;;;;;;4994103;28;20466;-71
2023/10/14 11:41:12;;;;;;;0.60;0.10;;;16.90;1.00;;;;;;4995013;28;20485;-73
2023/10/14 11:43:43;;;;;;;0.60;0.10;;;17.10;1.00;;;;;;4984860;28;20460;-72
2023/10/14 11:46:13;;;;;;;0.60;0.10;;;17.20;1.00;;;;;;4986920;28;20489;-72
2023/10/14 11:48:45;;;;;;;0.60;0.10;;;17.30;1.00;;;;;;4994065;28;20467;-70
2023/10/14 11:51:19;;;;;;;0.60;0.10;;;17.40;1.00;;;;;;4994667;28;20454;-71
2023/10/14 11:53:50;;;;;;;0.60;0.20;;;17.40;1.00;;;;;;4984206;28;20487;-72
2023/10/14 11:56:18;;;;;;;0.80;0.50;;;17.50;1.00;;;;;;4992403;28;20463;-73
2023/10/14 11:58:49;;;;;;;0.67;0.30;;;17.40;1.00;;;;;;4994893;28;21005;-72
2023/10/14 12:01:23;;;;;;;0.60;0.10;;;17.40;1.00;;;;;;4994815;28;20440;-73
2023/10/14 12:03:51;;;;;;;0.60;0.10;;;17.30;1.00;;;;;;4984866;28;20447;-73
2023/10/14 12:06:19;;;;;;;0.60;0.10;;;17.30;1.00;;;;;;4994740;28;20446;-72
2023/10/14 12:08:51;;;;;;;0.60;0.10;;;17.30;1.00;;;;;;4993964;28;20467;-72
2023/10/14 12:11:19;;;;;;;0.60;0.10;;;17.30;1.00;;;;;;4994410;28;20452;-73
2023/10/14 12:13:48;;;;;;;0.60;0.10;;;17.20;1.00;;;;;;4978987;28;21010;-72
2023/10/14 12:16:21;;;;;;;0.60;0.10;;;17.20;1.00;;;;;;4979374;28;20648;-72
2023/10/14 12:18:54;;;;;;;0.60;0.10;;;17.30;1.00;;;;;;4993808;28;21024;-72
2023/10/14 12:21:22;;;;;;;0.60;0.20;;;17.20;1.00;;;;;;4994411;28;20555;-72
2023/10/14 12:23:51;;;;;;;0.60;0.20;;;17.20;1.00;;;;;;4985654;28;20541;-72
2023/10/14 12:26:19;;;;;;;0.60;0.10;;;17.20;1.00;;;;;;4976589;28;20472;-73
2023/10/14 12:29:09;;;;;;;0.60;0.10;;;17.20;1.00;;;;;;4972456;28;20520;-73
2023/10/14 12:31:44;;;;;;;0.60;0.20;;;17.20;1.00;;;;;;4974453;28;20524;-71
2023/10/14 12:34:14;;;;;;;0.70;0.30;;;17.20;1.00;;;;;;4980447;28;20516;-72
2023/10/14 12:36:42;;;;;;;0.60;0.20;;;17.20;1.00;;;;;;4980965;28;20507;-74
2023/10/14 12:39:19;;;;;;;0.60;0.10;;;17.10;1.00;;;;;;4974163;28;20442;-71
2023/10/14 12:41:49;;;;;;;0.60;0.10;;;17.10;1.00;;;;;;4974022;28;20464;-73
2023/10/14 12:44:19;;;;;;;0.60;0.10;;;17.10;1.00;;;;;;4971662;28;20478;-72
2023/10/14 12:46:48;;;;;;;0.60;0.20;;;17.20;1.00;;;;;;4973361;28;20466;-72
2023/10/14 12:49:19;;;;;;;0.60;0.10;;;17.20;1.00;;;;;;4966446;28;20437;-70
2023/10/14 12:51:48;;;;;;;0.70;0.50;;;17.20;1.00;;;;;;4973967;28;20449;-71
2023/10/14 12:54:17;;;;;;;1.00;0.20;;;17.20;1.00;;;;;;4966949;28;20600;-70
2023/10/14 12:56:46;;;;;;;0.90;0.50;;;17.30;1.00;;;;;;4974171;28;20464;-71
2023/10/14 12:59:14;;;;;;;0.63;0.20;;;17.30;1.00;;;;;;4975003;28;20494;-72
2023/10/14 13:01:46;;;;;;;0.60;0.10;;;17.30;1.00;;;;;;4971251;28;20464;-70
2023/10/14 13:04:19;;;;;;;0.60;0.10;;;17.20;1.00;;;;;;4974098;28;20599;-70
2023/10/14 13:06:49;;;;;;;0.60;0.20;;;17.20;1.00;;;;;;4974229;28;20445;-71
2023/10/14 13:09:17;;;;;;;0.60;0.10;;;17.10;1.00;;;;;;4966734;28;20447;-70
2023/10/14 13:11:45;;;;;;;0.60;0.10;;;17.10;1.00;;;;;;4970723;28;20526;-71
2023/10/14 13:14:25;;;;;;;0.60;0.10;;;17.20;1.00;;;;;;4972262;28;20538;-71
2023/10/14 13:16:55;;;;;;;0.60;0.10;;;17.40;1.00;;;;;;4969702;28;20581;-71
2023/10/14 13:19:25;;;;;;;0.60;0.10;;;17.50;1.00;;;;;;4973999;28;20546;-71
2023/10/14 13:21:54;;;;;;;0.60;0.10;;;17.60;1.00;;;;;;4974216;28;20448;-72
2023/10/14 13:24:22;;;;;;;0.60;0.10;;;17.70;1.00;;;;;;4974476;28;20594;-72
2023/10/14 13:26:50;;;;;;;0.60;0.10;;;17.80;1.00;;;;;;4962308;28;21931;-71
2023/10/14 13:29:18;;;;;;;0.60;0.10;;;17.70;1.00;;;;;;4965894;28;20516;-69
2023/10/14 13:31:46;;;;;;;0.60;0.20;;;17.60;1.00;;;;;;4974111;28;20548;-70
2023/10/14 13:34:18;;;;;;;0.60;0.10;;;17.40;1.00;;;;;;4972918;28;20498;-72
2023/10/14 13:36:47;;;;;;;1.07;0.30;;;17.40;1.00;;;;;;4969517;28;21000;-70
2023/10/14 13:39:25;;;;;;;0.70;0.30;;;17.30;1.00;;;;;;4972997;28;20965;-70
2023/10/14 13:41:53;;;;;;;0.60;0.20;;;17.30;1.00;;;;;;4973489;28;20825;-70
2023/10/14 13:44:22;;;;;;;0.60;0.10;;;17.30;1.00;;;;;;4973470;28;20634;-69
2023/10/14 13:46:50;;;;;;;0.63;0.20;;;17.40;1.00;;;;;;4969772;28;20502;-70
2023/10/14 13:49:23;;;;;;;0.60;0.10;;;17.50;1.00;;;;;;4973271;28;20442;-70
2023/10/14 13:51:54;;;;;;;0.60;0.20;;;17.50;1.00;;;;;;4973919;28;20490;-71
2023/10/14 13:54:21;;;;;;;1.67;0.40;;;17.50;1.00;;;;;;4966202;28;20530;-71
2023/10/14 13:56:49;;;;;;;0.60;0.30;;;17.40;1.00;;;;;;4969723;28;20934;-71
2023/10/14 13:59:21;;;;;;;1.80;0.87;;;17.50;1.00;;;;;;4973365;28;20822;-70
2023/10/14 14:01:52;;;;;;;0.70;0.30;;;17.50;1.00;;;;;;4973522;28;20535;-71
2023/10/14 14:04:20;;;;;;;0.70;0.33;;;17.60;1.00;;;;;;4965379;28;20439;-70
2023/10/14 14:06:49;;;;;;;0.60;0.10;;;17.60;1.00;;;;;;4973693;28;21009;-70
2023/10/14 14:09:21;;;;;;;0.60;0.10;;;17.60;1.00;;;;;;4973452;28;20445;-72
2023/10/14 14:11:55;;;;;;;0.60;0.10;;;17.60;1.00;;;;;;4972498;28;20526;-72
2023/10/14 14:14:24;;;;;;;0.60;0.10;;;17.60;1.00;;;;;;4970765;28;20489;-73
2023/10/14 14:16:53;;;;;;;1.27;1.17;;;21.00;1.00;;;;;;4959627;28;20512;-72
2023/10/14 14:19:21;;;;;;;0.60;0.10;;;17.40;1.00;;;;;;4964365;28;20451;-73
2023/10/14 14:21:51;;;;;;;0.60;0.20;;;17.40;1.00;;;;;;4972168;28;20440;-72
2023/10/14 14:24:22;;;;;;;0.60;0.10;;;17.50;1.00;;;;;;4965598;28;20491;-72
2023/10/14 14:26:50;;;;;;;0.60;0.10;;;17.50;1.00;;;;;;4964715;28;20552;-71
2023/10/14 14:29:18;;;;;;;0.60;0.10;;;17.50;1.00;;;;;;4971280;28;20474;-71
2023/10/14 14:31:46;;;;;;;0.60;0.10;;;17.50;1.00;;;;;;4972077;28;20542;-71
2023/10/14 14:34:15;;;;;;;0.60;0.40;;;17.50;1.00;;;;;;4963503;28;20876;-72
2023/10/14 14:36:44;;;;;;;0.70;0.40;;;17.50;1.00;;;;;;4966369;28;20443;-71
2023/10/14 14:39:15;;;;;;;0.60;0.10;;;17.40;1.00;;;;;;4971632;28;20453;-72
2023/10/14 14:41:45;;;;;;;0.60;0.10;;;17.20;1.00;;;;;;4971577;28;20452;-70
2023/10/14 14:44:13;;;;;;;0.60;0.20;;;17.10;1.00;;;;;;4965835;28;20544;-71
2023/10/14 14:46:42;;;;;;;1.33;0.20;;;17.10;1.00;;;;;;4972359;28;20452;-71
2023/10/14 14:49:12;;;;;;;0.60;0.10;;;;;;;;;;4972086;28;20452;-71
2023/10/14 14:51:48;;;;;;;0.73;0.50;;;16.90;1.00;;;;;;4972716;28;20548;-72
2023/10/14 14:54:18;;;;;;;0.60;0.10;;;16.80;1.00;;;;;;4965466;28;20460;-72
2023/10/14 14:56:48;;;;;;;0.70;0.30;;;16.80;1.00;;;;;;4972355;28;20448;-71
2023/10/14 14:59:16;;;;;;;0.60;0.10;;;;;;;;;;4972687;28;20873;-71
2023/10/14 15:01:44;;;;;;;0.60;0.10;;;16.80;1.00;;;;;;4972522;28;20533;-71
2023/10/14 15:04:12;;;;;;;0.60;0.10;;;16.70;1.00;;;;;;4966335;28;20464;-71
2023/10/14 15:06:41;;;;;;;0.60;0.20;;;16.80;1.00;;;;;;4972111;28;20493;-72
2023/10/14 15:09:14;;;;;;;0.60;0.10;;;16.80;1.00;;;;;;4971939;28;20452;-72
2023/10/14 15:11:44;;;;;;;0.60;0.10;;;16.70;1.00;;;;;;4969604;28;20454;-71
2023/10/14 15:14:15;;;;;;;0.60;0.10;;;16.70;1.00;;;;;;4976293;28;20453;-71
2023/10/14 15:16:44;;;;;;;0.60;0.20;;;16.60;1.00;;;;;;4972302;28;20445;-71
2023/10/14 15:19:15;;;;;;;0.60;0.10;;;16.60;1.00;;;;;;4971450;28;20453;-71
2023/10/14 15:21:43;;;;;;;0.60;0.10;;;16.40;1.00;;;;;;4963800;28;21123;-72
2023/10/14 15:24:11;;;;;;;0.60;0.10;;;16.40;1.00;;;;;;4970948;28;20456;-72
2023/10/14 15:26:40;;;;;;;0.70;0.20;;;16.40;1.00;;;;;;4984357;28;21012;-72
2023/10/14 15:29:08;;;;;;;0.60;0.10;;;16.40;1.00;;;;;;4983630;28;20498;-71
2023/10/14 15:31:37;;;;;;;0.60;0.10;;;16.40;1.00;;;;;;4987525;28;20868;-72
2023/10/14 15:34:08;;;;;;;0.60;0.10;;;16.40;1.00;;;;;;4986348;28;20474;-70
2023/10/14 15:36:37;;;;;;;0.60;0.10;;;16.40;1.00;;;;;;4991548;28;20504;-71
2023/10/14 15:39:15;;;;;;;0.60;0.20;;;16.50;1.00;;;;;;4991059;28;20532;-71
2023/10/14 15:41:45;;;;;;;0.60;0.10;;;16.50;1.00;;;;;;4987764;28;21037;-71
2023/10/14 15:44:13;;;;;;;0.60;0.10;;;16.50;1.00;;;;;;4991161;28;20538;-72
2023/10/14 15:46:42;;;;;;;0.60;0.20;;;16.50;1.00;;;;;;4991522;28;20532;-71
2023/10/14 15:49:10;;;;;;;0.60;0.10;;;16.50;1.00;;;;;;4991499;28;20442;-70
2023/10/14 15:51:39;;;;;;;0.70;0.27;;;16.40;1.00;;;;;;4978474;28;20982;-70
2023/10/14 15:54:07;;;;;;;0.60;0.10;;;16.30;1.00;;;;;;4987005;28;20835;-71
2023/10/14 15:56:34;;;;;;;0.60;0.10;;;16.20;1.00;;;;;;4990999;28;20520;-71
2023/10/14 15:59:03;;;;;;;0.60;0.23;;;16.20;1.00;;;;;;4991299;28;20534;-71
2023/10/14 16:01:32;;;;;;;0.60;0.10;;;16.20;1.00;;;;;;4987942;28;20449;-72
2023/10/14 16:04:04;;;;;;;0.60;0.10;;;;;;;;;;4991259;28;20451;-72
2023/10/14 16:06:32;;;;;;;0.60;0.10;;;16.10;1.00;;;;;;4993634;28;20465;-72
2023/10/14 16:09:00;;;;;;;0.60;0.30;;;16.20;1.00;;;;;;4986950;28;20453;-72
2023/10/14 16:11:28;;;;;;;0.60;0.10;;;16.10;1.00;;;;;;4972204;28;20459;-72
2023/10/14 16:13:58;;;;;;;0.60;0.10;;;16.10;1.00;;;;;;4979094;28;20537;-72
2023/10/14 16:16:26;;;;;;;0.60;0.10;;;16.10;1.00;;;;;;4994315;28;20484;-71
2023/10/14 16:18:54;;;;;;;0.60;0.10;;;16.00;1.00;;;;;;4994206;28;20475;-71
2023/10/14 16:21:23;;;;;;;0.70;0.40;;;16.00;1.00;;;;;;4977785;28;21020;-73
2023/10/14 16:23:51;;;;;;;0.60;0.20;;;15.90;1.00;;;;;;4988229;28;20538;-72
2023/10/14 16:26:19;;;;;;;0.60;0.10;;;15.90;1.00;;;;;;4991207;28;20453;-72
2023/10/14 16:28:48;;;;;;;0.60;0.20;;;15.80;1.00;;;;;;4981687;28;20578;-72
2023/10/14 16:31:17;;;;;;;0.60;0.10;;;15.70;1.00;;;;;;4990197;28;20509;-72
2023/10/14 16:33:47;;;;;;;0.80;0.20;;;15.70;1.00;;;;;;4991600;28;20463;-72
2023/10/14 16:36:16;;;;;;;0.60;0.10;;;15.60;1.00;;;;;;4993014;28;20921;-72
2023/10/14 16:38:46;;;;;;;0.60;0.10;;;15.60;1.00;;;;;;4994655;28;20483;-71
2023/10/14 16:41:16;;;;;;;0.60;0.13;;;15.40;1.00;;;;;;4991933;28;20460;-73
2023/10/14 16:43:44;;;;;;;0.60;0.10;;;15.40;1.00;;;;;;4994595;28;20475;-72
2023/10/14 16:46:14;;;;;;;0.60;0.23;;;15.40;1.00;;;;;;4995463;28;20901;-72
2023/10/14 16:48:43;;;;;;;0.60;0.10;;;15.20;1.00;;;;;;4995852;28;20505;-72
2023/10/14 16:51:11;;;;;;;0.60;0.10;;;15.20;1.00;;;;;;4986447;28;20486;-72
2023/10/14 16:53:39;;;;;;;0.90;0.30;;;;;;;;;;4987216;28;20932;-72
2023/10/14 16:56:14;;;;;;;0.60;0.10;;;15.20;1.00;;;;;;4993894;28;20574;-70
2023/10/14 16:58:44;;;;;;;0.60;0.10;;;15.20;1.00;;;;;;4988882;28;20557;-71
2023/10/14 17:01:14;;;;;;;3.83;1.03;;;15.20;1.00;;;;;;4995453;28;20451;-72
2023/10/14 17:03:44;;;;;;;0.60;0.10;;;15.20;1.00;;;;;;5000047;28;20437;-71
2023/10/14 17:06:14;;;;;;;0.70;0.47;;;15.30;1.00;;;;;;4998979;28;20550;-72
2023/10/14 17:08:43;;;;;;;0.60;0.10;;;15.30;1.00;;;;;;5001067;28;21023;-72
2023/10/14 17:11:11;;;;;;;0.60;0.10;;;15.30;1.00;;;;;;4986733;28;20519;-72
2023/10/14 17:13:41;;;;;;;0.60;0.10;;;15.40;1.00;;;;;;5000879;28;20532;-71
2023/10/14 17:16:12;;;;;;;0.70;0.20;;;15.30;1.00;;;;;;4999048;28;20486;-73
2023/10/14 17:18:43;;;;;;;0.60;0.10;;;15.40;1.00;;;;;;5000892;28;20552;-71